sensor_id;sensor_type;location;lat;lon;timestamp;P1;durP1;ratioP1;P2;durP2;ratioP2
58250;SDS011;51449;51.676;5.812;2022-12-07T00:39:26;19.53;;;13.20;;
58250;SDS011;51449;51.676;5.812;2022-12-07T06:31:47;14.27;;;7.30;;
58250;SDS011;51449;51.676;5.812;2022-12-07T07:16:33;10.73;;;5.50;;
58250;SDS011;51449;51.676;5.812;2022-12-07T07:28:26;13.20;;;4.97;;
58250;SDS011;51449;51.676;5.812;2022-12-07T07:30:53;16.13;;;6.20;;
58250;SDS011;51449;51.676;5.812;2022-12-07T10:07:31;8.25;;;4.38;;
58250;SDS011;51449;51.676;5.812;2022-12-07T12:06:13;5.97;;;2.20;;
58250;SDS011;51449;51.676;5.812;2022-12-07T12:08:38;5.23;;;2.07;;
58250;SDS011;51449;51.676;5.812;2022-12-07T12:15:23;4.57;;;2.20;;
58250;SDS011;51449;51.676;5.812;2022-12-07T14:17:33;5.37;;;1.53;;
58250;SDS011;51449;51.676;5.812;2022-12-07T14:20:01;2.33;;;1.20;;
58250;SDS011;51449;51.676;5.812;2022-12-07T14:40:22;2.57;;;1.23;;
58250;SDS011;51449;51.676;5.812;2022-12-07T14:42:50;3.50;;;1.37;;
58250;SDS011;51449;51.676;5.812;2022-12-07T14:45:20;2.27;;;1.53;;
58250;SDS011;51449;51.676;5.812;2022-12-07T14:47:44;4.37;;;2.00;;
58250;SDS011;51449;51.676;5.812;2022-12-07T14:50:27;6.90;;;2.47;;
58250;SDS011;51449;51.676;5.812;2022-12-07T14:52:52;5.17;;;2.00;;
58250;SDS011;51449;51.676;5.812;2022-12-07T15:28:09;4.30;;;1.30;;
58250;SDS011;51449;51.676;5.812;2022-12-07T16:20:07;4.97;;;2.40;;
58250;SDS011;51449;51.676;5.812;2022-12-07T16:29:22;3.67;;;2.27;;
58250;SDS011;51449;51.676;5.812;2022-12-07T16:31:45;4.97;;;2.07;;
58250;SDS011;51449;51.676;5.812;2022-12-07T16:34:09;5.75;;;2.10;;
58250;SDS011;51449;51.676;5.812;2022-12-07T16:43:23;3.50;;;2.33;;
58250;SDS011;51449;51.676;5.812;2022-12-07T16:54:48;5.00;;;3.10;;
58250;SDS011;51449;51.676;5.812;2022-12-07T17:02:39;5.17;;;2.80;;
58250;SDS011;51449;51.676;5.812;2022-12-07T17:05:01;4.73;;;3.23;;
58250;SDS011;51449;51.676;5.812;2022-12-07T17:07:24;6.63;;;3.37;;
58250;SDS011;51449;51.676;5.812;2022-12-07T17:12:41;7.07;;;3.72;;
58250;SDS011;51449;51.676;5.812;2022-12-07T17:15:05;5.40;;;4.17;;
58250;SDS011;51449;51.676;5.812;2022-12-07T17:17:43;5.60;;;3.50;;
58250;SDS011;51449;51.676;5.812;2022-12-07T17:20:10;8.07;;;4.00;;
58250;SDS011;51449;51.676;5.812;2022-12-07T17:22:54;7.63;;;3.63;;
58250;SDS011;51449;51.676;5.812;2022-12-07T17:25:21;9.43;;;3.93;;
58250;SDS011;51449;51.676;5.812;2022-12-07T17:27:43;7.37;;;4.63;;
58250;SDS011;51449;51.676;5.812;2022-12-07T17:30:07;7.80;;;4.82;;
58250;SDS011;51449;51.676;5.812;2022-12-07T17:32:31;8.70;;;4.72;;
58250;SDS011;51449;51.676;5.812;2022-12-07T17:34:53;7.40;;;5.10;;
58250;SDS011;51449;51.676;5.812;2022-12-07T17:37:15;12.43;;;5.63;;
58250;SDS011;51449;51.676;5.812;2022-12-07T17:39:38;8.77;;;5.97;;
58250;SDS011;51449;51.676;5.812;2022-12-07T17:42:01;7.20;;;5.40;;
58250;SDS011;51449;51.676;5.812;2022-12-07T17:44:50;8.20;;;5.53;;
58250;SDS011;51449;51.676;5.812;2022-12-07T17:47:12;9.30;;;6.50;;
58250;SDS011;51449;51.676;5.812;2022-12-07T17:49:36;11.93;;;6.75;;
58250;SDS011;51449;51.676;5.812;2022-12-07T17:51:58;12.63;;;6.87;;
58250;SDS011;51449;51.676;5.812;2022-12-07T17:54:38;10.47;;;7.10;;
58250;SDS011;51449;51.676;5.812;2022-12-07T17:57:01;12.90;;;8.07;;
58250;SDS011;51449;51.676;5.812;2022-12-07T17:59:29;12.07;;;8.20;;
58250;SDS011;51449;51.676;5.812;2022-12-07T18:01:51;10.43;;;7.23;;
58250;SDS011;51449;51.676;5.812;2022-12-07T18:04:14;12.90;;;8.47;;
58250;SDS011;51449;51.676;5.812;2022-12-07T18:06:36;12.10;;;7.87;;
58250;SDS011;51449;51.676;5.812;2022-12-07T18:08:59;15.07;;;8.20;;
58250;SDS011;51449;51.676;5.812;2022-12-07T18:11:21;12.83;;;8.20;;
58250;SDS011;51449;51.676;5.812;2022-12-07T18:13:44;11.97;;;8.37;;
58250;SDS011;51449;51.676;5.812;2022-12-07T18:16:09;9.57;;;7.50;;
58250;SDS011;51449;51.676;5.812;2022-12-07T18:18:38;12.83;;;7.93;;
58250;SDS011;51449;51.676;5.812;2022-12-07T18:21:09;10.65;;;7.93;;
58250;SDS011;51449;51.676;5.812;2022-12-07T18:23:44;14.33;;;8.83;;
58250;SDS011;51449;51.676;5.812;2022-12-07T18:26:09;19.10;;;9.97;;
58250;SDS011;51449;51.676;5.812;2022-12-07T18:28:34;21.47;;;10.40;;
58250;SDS011;51449;51.676;5.812;2022-12-07T18:30:55;12.53;;;8.60;;
58250;SDS011;51449;51.676;5.812;2022-12-07T18:33:38;18.20;;;10.43;;
58250;SDS011;51449;51.676;5.812;2022-12-07T18:36:01;14.37;;;9.33;;
58250;SDS011;51449;51.676;5.812;2022-12-07T18:38:26;11.88;;;8.23;;
58250;SDS011;51449;51.676;5.812;2022-12-07T18:40:48;13.63;;;8.07;;
58250;SDS011;51449;51.676;5.812;2022-12-07T18:43:10;12.03;;;7.93;;
58250;SDS011;51449;51.676;5.812;2022-12-07T18:45:35;13.00;;;8.25;;
58250;SDS011;51449;51.676;5.812;2022-12-07T18:47:59;13.65;;;8.45;;
58250;SDS011;51449;51.676;5.812;2022-12-07T18:50:21;13.93;;;8.00;;
58250;SDS011;51449;51.676;5.812;2022-12-07T18:52:43;9.87;;;7.37;;
58250;SDS011;51449;51.676;5.812;2022-12-07T18:55:05;11.83;;;7.73;;
58250;SDS011;51449;51.676;5.812;2022-12-07T18:57:30;14.97;;;7.87;;
58250;SDS011;51449;51.676;5.812;2022-12-07T18:59:54;11.53;;;7.37;;
58250;SDS011;51449;51.676;5.812;2022-12-07T19:02:16;9.80;;;6.93;;
58250;SDS011;51449;51.676;5.812;2022-12-07T19:04:39;13.40;;;7.77;;
58250;SDS011;51449;51.676;5.812;2022-12-07T19:07:02;13.37;;;7.73;;
58250;SDS011;51449;51.676;5.812;2022-12-07T19:09:24;12.50;;;7.87;;
58250;SDS011;51449;51.676;5.812;2022-12-07T19:11:47;14.80;;;8.50;;
58250;SDS011;51449;51.676;5.812;2022-12-07T19:14:10;12.02;;;8.02;;
58250;SDS011;51449;51.676;5.812;2022-12-07T19:16:34;14.65;;;7.80;;
58250;SDS011;51449;51.676;5.812;2022-12-07T19:18:56;9.90;;;7.80;;
58250;SDS011;51449;51.676;5.812;2022-12-07T19:21:19;13.43;;;8.63;;
58250;SDS011;51449;51.676;5.812;2022-12-07T19:23:41;12.53;;;7.77;;
58250;SDS011;51449;51.676;5.812;2022-12-07T19:26:03;12.43;;;8.10;;
58250;SDS011;51449;51.676;5.812;2022-12-07T19:28:25;13.37;;;8.33;;
58250;SDS011;51449;51.676;5.812;2022-12-07T19:30:47;11.67;;;8.23;;
58250;SDS011;51449;51.676;5.812;2022-12-07T19:33:10;13.40;;;9.20;;
58250;SDS011;51449;51.676;5.812;2022-12-07T19:35:32;13.27;;;8.40;;
58250;SDS011;51449;51.676;5.812;2022-12-07T19:37:54;12.53;;;9.27;;
58250;SDS011;51449;51.676;5.812;2022-12-07T19:40:16;16.30;;;10.43;;
58250;SDS011;51449;51.676;5.812;2022-12-07T19:42:38;13.23;;;8.43;;
58250;SDS011;51449;51.676;5.812;2022-12-07T19:45:01;13.47;;;8.50;;
58250;SDS011;51449;51.676;5.812;2022-12-07T19:47:24;15.52;;;9.20;;
58250;SDS011;51449;51.676;5.812;2022-12-07T19:49:46;15.17;;;9.13;;
58250;SDS011;51449;51.676;5.812;2022-12-07T19:52:09;14.43;;;8.80;;
58250;SDS011;51449;51.676;5.812;2022-12-07T19:54:35;13.83;;;9.20;;
58250;SDS011;51449;51.676;5.812;2022-12-07T19:56:58;13.07;;;8.95;;
58250;SDS011;51449;51.676;5.812;2022-12-07T19:59:22;15.63;;;10.10;;
58250;SDS011;51449;51.676;5.812;2022-12-07T20:01:47;14.90;;;9.93;;
58250;SDS011;51449;51.676;5.812;2022-12-07T20:04:12;14.80;;;10.43;;
58250;SDS011;51449;51.676;5.812;2022-12-07T20:06:38;15.83;;;11.13;;
58250;SDS011;51449;51.676;5.812;2022-12-07T20:09:01;14.87;;;10.10;;
58250;SDS011;51449;51.676;5.812;2022-12-07T20:15:28;14.63;;;8.73;;
58250;SDS011;51449;51.676;5.812;2022-12-07T20:17:51;9.70;;;8.37;;
58250;SDS011;51449;51.676;5.812;2022-12-07T20:20:13;11.90;;;8.40;;
58250;SDS011;51449;51.676;5.812;2022-12-07T20:22:35;12.40;;;8.33;;
58250;SDS011;51449;51.676;5.812;2022-12-07T20:24:57;12.93;;;8.03;;
58250;SDS011;51449;51.676;5.812;2022-12-07T20:32:10;19.05;;;10.40;;
58250;SDS011;51449;51.676;5.812;2022-12-07T20:38:15;14.93;;;10.23;;
58250;SDS011;51449;51.676;5.812;2022-12-07T20:41:39;13.10;;;8.90;;
58250;SDS011;51449;51.676;5.812;2022-12-07T20:45:32;12.23;;;8.53;;
58250;SDS011;51449;51.676;5.812;2022-12-07T20:47:54;15.93;;;8.93;;
58250;SDS011;51449;51.676;5.812;2022-12-07T21:07:41;10.40;;;7.27;;
58250;SDS011;51449;51.676;5.812;2022-12-07T21:10:04;11.37;;;7.30;;
58250;SDS011;51449;51.676;5.812;2022-12-07T21:17:36;12.70;;;7.60;;
58250;SDS011;51449;51.676;5.812;2022-12-07T21:19:59;10.83;;;7.20;;
58250;SDS011;51449;51.676;5.812;2022-12-07T21:22:21;10.83;;;7.50;;
58250;SDS011;51449;51.676;5.812;2022-12-07T21:24:57;9.73;;;6.90;;
58250;SDS011;51449;51.676;5.812;2022-12-07T21:27:41;10.90;;;7.07;;
58250;SDS011;51449;51.676;5.812;2022-12-07T21:30:03;13.10;;;7.73;;
58250;SDS011;51449;51.676;5.812;2022-12-07T21:32:47;10.25;;;6.72;;
58250;SDS011;51449;51.676;5.812;2022-12-07T21:35:10;12.73;;;7.87;;
58250;SDS011;51449;51.676;5.812;2022-12-07T21:37:32;9.70;;;7.70;;
58250;SDS011;51449;51.676;5.812;2022-12-07T21:39:54;12.03;;;7.70;;
58250;SDS011;51449;51.676;5.812;2022-12-07T21:42:16;14.90;;;8.20;;
58250;SDS011;51449;51.676;5.812;2022-12-07T21:44:38;11.90;;;7.57;;
58250;SDS011;51449;51.676;5.812;2022-12-07T21:47:00;10.67;;;7.77;;
58250;SDS011;51449;51.676;5.812;2022-12-07T21:49:22;10.60;;;7.60;;
58250;SDS011;51449;51.676;5.812;2022-12-07T21:51:44;13.03;;;7.83;;
58250;SDS011;51449;51.676;5.812;2022-12-07T21:54:07;10.40;;;6.80;;
58250;SDS011;51449;51.676;5.812;2022-12-07T21:56:32;9.63;;;6.60;;
58250;SDS011;51449;51.676;5.812;2022-12-07T21:58:59;8.73;;;6.43;;
58250;SDS011;51449;51.676;5.812;2022-12-07T22:01:38;10.77;;;7.30;;
58250;SDS011;51449;51.676;5.812;2022-12-07T22:04:06;8.07;;;6.33;;
58250;SDS011;51449;51.676;5.812;2022-12-07T22:06:32;10.07;;;6.97;;
58250;SDS011;51449;51.676;5.812;2022-12-07T22:08:57;10.63;;;6.47;;
58250;SDS011;51449;51.676;5.812;2022-12-07T22:13:54;8.90;;;6.43;;
58250;SDS011;51449;51.676;5.812;2022-12-07T22:16:56;9.37;;;6.60;;
58250;SDS011;51449;51.676;5.812;2022-12-07T22:19:20;8.60;;;6.18;;
58250;SDS011;51449;51.676;5.812;2022-12-07T22:21:43;9.77;;;6.90;;
58250;SDS011;51449;51.676;5.812;2022-12-07T22:24:18;8.98;;;6.10;;
58250;SDS011;51449;51.676;5.812;2022-12-07T22:27:01;14.40;;;6.40;;
58250;SDS011;51449;51.676;5.812;2022-12-07T22:29:31;13.40;;;7.15;;
58250;SDS011;51449;51.676;5.812;2022-12-07T22:31:59;10.48;;;6.57;;
58250;SDS011;51449;51.676;5.812;2022-12-07T22:35:09;12.53;;;6.47;;
58250;SDS011;51449;51.676;5.812;2022-12-07T22:37:31;12.20;;;6.77;;
58250;SDS011;51449;51.676;5.812;2022-12-07T22:39:54;10.60;;;6.60;;
58250;SDS011;51449;51.676;5.812;2022-12-07T22:42:16;9.17;;;6.13;;
58250;SDS011;51449;51.676;5.812;2022-12-07T22:49:29;10.88;;;5.50;;
58250;SDS011;51449;51.676;5.812;2022-12-07T22:52:09;11.03;;;5.80;;
58250;SDS011;51449;51.676;5.812;2022-12-07T22:54:42;9.63;;;5.70;;
58250;SDS011;51449;51.676;5.812;2022-12-07T22:57:28;9.20;;;5.60;;
58250;SDS011;51449;51.676;5.812;2022-12-07T23:00:30;8.50;;;5.00;;
58250;SDS011;51449;51.676;5.812;2022-12-07T23:03:12;6.77;;;5.03;;
58250;SDS011;51449;51.676;5.812;2022-12-07T23:05:48;8.43;;;5.60;;
58250;SDS011;51449;51.676;5.812;2022-12-07T23:08:11;6.27;;;4.90;;
58250;SDS011;51449;51.676;5.812;2022-12-07T23:10:34;9.23;;;6.00;;
58250;SDS011;51449;51.676;5.812;2022-12-07T23:12:56;10.83;;;5.10;;
58250;SDS011;51449;51.676;5.812;2022-12-07T23:15:37;7.93;;;5.00;;
58250;SDS011;51449;51.676;5.812;2022-12-07T23:17:59;8.23;;;5.00;;
58250;SDS011;51449;51.676;5.812;2022-12-07T23:20:21;8.07;;;5.13;;
58250;SDS011;51449;51.676;5.812;2022-12-07T23:22:43;7.73;;;5.23;;
58250;SDS011;51449;51.676;5.812;2022-12-07T23:25:06;7.03;;;5.17;;
58250;SDS011;51449;51.676;5.812;2022-12-07T23:27:28;8.23;;;5.17;;
58250;SDS011;51449;51.676;5.812;2022-12-07T23:29:50;10.10;;;6.30;;
58250;SDS011;51449;51.676;5.812;2022-12-07T23:32:12;10.37;;;6.23;;
58250;SDS011;51449;51.676;5.812;2022-12-07T23:34:34;12.87;;;6.37;;
58250;SDS011;51449;51.676;5.812;2022-12-07T23:36:57;8.47;;;6.77;;
58250;SDS011;51449;51.676;5.812;2022-12-07T23:39:22;8.90;;;6.77;;
58250;SDS011;51449;51.676;5.812;2022-12-07T23:41:58;8.27;;;6.17;;
58250;SDS011;51449;51.676;5.812;2022-12-07T23:44:20;13.53;;;7.27;;
58250;SDS011;51449;51.676;5.812;2022-12-07T23:46:42;12.57;;;7.83;;
58250;SDS011;51449;51.676;5.812;2022-12-07T23:49:05;9.70;;;6.97;;
58250;SDS011;51449;51.676;5.812;2022-12-07T23:51:27;13.83;;;7.67;;
58250;SDS011;51449;51.676;5.812;2022-12-07T23:53:51;12.37;;;9.17;;
58250;SDS011;51449;51.676;5.812;2022-12-07T23:56:29;13.00;;;9.02;;
58250;SDS011;51449;51.676;5.812;2022-12-07T23:59:08;14.20;;;9.27;;
